Time;durP1;ratioP1;P1;durP2;ratioP2;P2;SDS_P1;SDS_P2;PMS_P1;PMS_P2;Temp;Humidity;BMP_temperature;BMP_pressure;BME280_temperature;BME280_humidity;BME280_pressure;Samples;Min_cycle;Max_cycle;Signal;HPM_P1;HPM_P2
2023/06/23 00:00:37;;;;;;;;;;;21.90;67.70;;;;;;6070304;23;19968;-81
2023/06/23 00:03:04;;;;;;;;;;;21.80;67.60;;;;;;6071516;23;19917;-78
2023/06/23 00:05:33;;;;;;;;;;;21.80;67.70;;;;;;6071881;23;19952;-82
2023/06/23 00:08:00;;;;;;;;;;;21.80;67.90;;;;;;6070838;23;19917;-83
2023/06/23 00:10:27;;;;;;;;;;;21.70;67.80;;;;;;6073520;23;19917;-84
2023/06/23 00:12:53;;;;;;;;;;;21.80;68.00;;;;;;6070686;23;19917;-78
2023/06/23 00:15:22;;;;;;;;;;;21.70;67.50;;;;;;6071635;23;20338;-79
2023/06/23 00:17:50;;;;;;;;;;;21.70;66.90;;;;;;6096047;23;19922;-81
2023/06/23 00:20:19;;;;;;;;;;;21.70;67.10;;;;;;6071373;23;20251;-82
2023/06/23 00:22:46;;;;;;;;;;;21.80;67.30;;;;;;6071559;23;20398;-86
2023/06/23 00:25:12;;;;;;;;;;;21.80;66.60;;;;;;6097169;23;19932;-81
2023/06/23 00:27:40;;;;;;;;;;;21.80;67.40;;;;;;6071689;23;19975;-80
2023/06/23 00:30:07;;;;;;;;;;;21.70;67.90;;;;;;6070780;23;19924;-82
2023/06/23 00:32:34;;;;;;;;;;;21.70;68.40;;;;;;6071151;23;19917;-83
2023/06/23 00:35:01;;;;;;;;;;;21.60;69.40;;;;;;6070024;23;19951;-82
2023/06/23 00:37:31;;;;;;;;;;;21.60;69.80;;;;;;6071009;23;19921;-85
2023/06/23 00:39:58;;;;;;;;;;;21.60;69.40;;;;;;6071144;23;19922;-84
2023/06/23 00:42:25;;;;;;;;;;;21.60;68.80;;;;;;6071490;23;19945;-86
2023/06/23 00:44:53;;;;;;;;;;;21.60;69.10;;;;;;6072864;23;19921;-81
2023/06/23 00:47:20;;;;;;;;;;;21.60;69.40;;;;;;6070383;23;19917;-82
2023/06/23 00:49:47;;;;;;;;;;;21.60;70.00;;;;;;6071838;23;20252;-83
2023/06/23 00:52:13;;;;;;;;;;;21.50;70.00;;;;;;6070238;23;19917;-88
2023/06/23 00:54:40;;;;;;;;;;;21.50;70.40;;;;;;6072655;23;19921;-85
2023/06/23 00:57:07;;;;;;;;;;;21.50;70.10;;;;;;6096607;23;19918;-86
2023/06/23 00:59:34;;;;;;;;;;;21.60;68.70;;;;;;6074638;23;20304;-86
2023/06/23 01:02:01;;;;;;;;;;;21.60;68.60;;;;;;6073407;23;20387;-87
2023/06/23 01:04:34;;;;;;;;;;;21.70;68.60;;;;;;6085168;23;19917;-77
2023/06/23 01:07:11;;;;;;;;;;;21.70;68.50;;;;;;6047860;23;19921;-77
2023/06/23 01:09:44;;;;;;;;;;;21.70;68.40;;;;;;6081663;23;19917;-78
2023/06/23 01:12:16;;;;;;;;;;;21.70;68.00;;;;;;6084301;23;20402;-77
2023/06/23 01:15:13;;;;;;;;;;;21.70;68.00;;;;;;6076136;23;19924;-77
2023/06/23 01:17:44;;;;;;;;;;;21.70;67.80;;;;;;6063796;23;19932;-78
2023/06/23 01:20:21;;;;;;;;;;;21.70;67.30;;;;;;6057294;23;19921;-80
2023/06/23 01:23:00;;;;;;;;;;;21.80;65.90;;;;;;6074057;23;19917;-76
2023/06/23 01:25:35;;;;;;;;;;;21.90;65.70;;;;;;6080278;23;20004;-78
2023/06/23 01:28:12;;;;;;;;;;;21.90;66.30;;;;;;6079617;23;19917;-78
2023/06/23 01:30:41;;;;;;;;;;;21.90;65.80;;;;;;6075981;23;20291;-78
2023/06/23 01:33:14;;;;;;;;;;;21.90;66.30;;;;;;6080583;23;19921;-77
2023/06/23 01:35:44;;;;;;;;;;;21.90;65.50;;;;;;6056900;23;19920;-78
2023/06/23 01:38:15;;;;;;;;;;;21.90;65.90;;;;;;6100574;23;19917;-77
2023/06/23 01:40:43;;;;;;;;;;;21.90;66.30;;;;;;6052903;23;20346;-77
2023/06/23 01:43:11;;;;;;;;;;;21.90;65.80;;;;;;6068645;23;19917;-79
2023/06/23 01:45:39;;;;;;;;;;;21.80;65.50;;;;;;6076274;23;19932;-78
2023/06/23 01:48:07;;;;;;;;;;;21.80;65.70;;;;;;6072089;23;20251;-78
2023/06/23 01:50:37;;;;;;;;;;;21.80;66.20;;;;;;6071234;23;19999;-78
2023/06/23 01:53:05;;;;;;;;;;;21.80;66.40;;;;;;6077210;23;20428;-78
2023/06/23 01:55:33;;;;;;;;;;;21.90;65.70;;;;;;6078924;23;19918;-78
2023/06/23 01:58:01;;;;;;;;;;;21.90;64.90;;;;;;6077060;23;20001;-79
2023/06/23 02:00:31;;;;;;;;;;;21.90;64.80;;;;;;6078839;23;19924;-78
2023/06/23 02:03:00;;;;;;;;;;;22.00;64.60;;;;;;6073730;23;19921;-77
2023/06/23 02:05:28;;;;;;;;;;;22.00;64.40;;;;;;6071724;23;19937;-81
2023/06/23 02:07:56;;;;;;;;;;;22.00;64.20;;;;;;6073724;23;19937;-78
2023/06/23 02:10:24;;;;;;;;;;;22.10;64.10;;;;;;6073315;23;19989;-78
2023/06/23 02:12:53;;;;;;;;;;;22.10;63.90;;;;;;6073729;23;19918;-79
2023/06/23 02:15:21;;;;;;;;;;;22.00;64.10;;;;;;6073148;23;19918;-79
2023/06/23 02:17:49;;;;;;;;;;;22.00;64.30;;;;;;6073740;23;19921;-81
2023/06/23 02:20:16;;;;;;;;;;;22.00;64.40;;;;;;6073269;23;19926;-78
2023/06/23 02:22:45;;;;;;;;;;;22.00;64.30;;;;;;6074046;23;20256;-79
2023/06/23 02:25:12;;;;;;;;;;;22.00;64.90;;;;;;6073151;23;19901;-81
2023/06/23 02:27:40;;;;;;;;;;;21.90;64.30;;;;;;6061046;23;19941;-78
2023/06/23 02:30:09;;;;;;;;;;;21.90;64.30;;;;;;6071521;23;20251;-78
2023/06/23 02:32:36;;;;;;;;;;;22.00;64.00;;;;;;6073087;23;20259;-78
2023/06/23 02:35:05;;;;;;;;;;;22.00;63.60;;;;;;6054218;23;19928;-77
2023/06/23 02:37:32;;;;;;;;;;;22.00;63.60;;;;;;6046139;23;19917;-78
2023/06/23 02:40:09;;;;;;;;;;;22.00;63.30;;;;;;6070686;23;19924;-78
2023/06/23 02:42:40;;;;;;;;;;;22.00;63.30;;;;;;6060223;23;19918;-77
2023/06/23 02:45:14;;;;;;;;;;;22.10;62.80;;;;;;6074079;23;19919;-78
2023/06/23 02:47:42;;;;;;;;;;;22.10;63.00;;;;;;6070823;23;19918;-79
2023/06/23 02:50:13;;;;;;;;;;;22.10;63.00;;;;;;6075021;23;19917;-79
2023/06/23 02:52:47;;;;;;;;;;;22.10;62.70;;;;;;6070256;23;19917;-78
2023/06/23 02:55:18;;;;;;;;;;;22.10;62.40;;;;;;6068579;23;19928;-81
2023/06/23 02:57:46;;;;;;;;;;;22.10;62.70;;;;;;6073874;23;19972;-81
2023/06/23 03:00:19;;;;;;;;;;;22.20;61.70;;;;;;6074495;23;19918;-81
2023/06/23 03:02:47;;;;;;;;;;;22.20;62.40;;;;;;6077408;23;19917;-78
2023/06/23 03:05:14;;;;;;;;;;;22.10;63.00;;;;;;6076062;23;19951;-78
2023/06/23 03:07:41;;;;;;;;;;;22.10;63.70;;;;;;6073063;23;19925;-81
2023/06/23 03:10:08;;;;;;;;;;;22.00;64.00;;;;;;6071798;23;19981;-81
2023/06/23 03:12:35;;;;;;;;;;;21.90;64.30;;;;;;6076196;23;20252;-80
2023/06/23 03:15:02;;;;;;;;;;;21.90;64.60;;;;;;6075592;23;19918;-79
2023/06/23 03:17:31;;;;;;;;;;;22.00;63.80;;;;;;6073141;23;20263;-81
2023/06/23 03:20:24;;;;;;;;;;;22.00;63.30;;;;;;6075185;23;20284;-79
2023/06/23 03:23:03;;;;;;;;;;;22.00;63.10;;;;;;6072296;23;20251;-79
2023/06/23 03:25:30;;;;;;;;;;;22.00;62.80;;;;;;6069968;23;19925;-79
2023/06/23 03:27:59;;;;;;;;;;;22.10;62.40;;;;;;6072621;23;19917;-80
2023/06/23 03:30:32;;;;;;;;;;;22.10;62.10;;;;;;6070431;23;19922;-79
2023/06/23 03:33:01;;;;;;;;;;;22.10;62.00;;;;;;6068752;23;19945;-82
2023/06/23 03:35:31;;;;;;;;;;;22.20;61.60;;;;;;6066824;23;19921;-81
2023/06/23 03:38:02;;;;;;;;;;;22.20;61.40;;;;;;6067140;23;19921;-80
2023/06/23 03:40:31;;;;;;;;;;;22.30;60.80;;;;;;6069941;23;19928;-80
2023/06/23 03:43:03;;;;;;;;;;;22.30;60.10;;;;;;6069859;23;20336;-82
2023/06/23 03:45:30;;;;;;;;;;;22.40;59.60;;;;;;6065916;23;19942;-81
2023/06/23 03:48:00;;;;;;;;;;;22.40;59.60;;;;;;6069039;23;20288;-79
2023/06/23 03:50:30;;;;;;;;;;;22.40;60.40;;;;;;6068254;23;20304;-82
2023/06/23 03:52:58;;;;;;;;;;;22.40;60.30;;;;;;6067670;23;19973;-80
2023/06/23 03:55:26;;;;;;;;;;;22.40;60.20;;;;;;6066729;23;19972;-82
2023/06/23 03:57:54;;;;;;;;;;;22.30;60.30;;;;;;6065510;23;19926;-82
2023/06/23 04:00:22;;;;;;;;;;;22.30;60.50;;;;;;6070879;23;19917;-81
2023/06/23 04:02:50;;;;;;;;;;;22.30;60.00;;;;;;6066645;23;20280;-81
2023/06/23 04:05:18;;;;;;;;;;;22.30;60.00;;;;;;6066763;23;19980;-81
2023/06/23 04:07:45;;;;;;;;;;;22.30;59.90;;;;;;6069075;23;19924;-79
2023/06/23 04:10:13;;;;;;;;;;;22.50;59.30;;;;;;6071467;23;20296;-80
2023/06/23 04:12:40;;;;;;;;;;;22.50;59.30;;;;;;6066908;23;19925;-81
2023/06/23 04:15:09;;;;;;;;;;;22.50;59.10;;;;;;6069348;23;19918;-82
2023/06/23 04:17:38;;;;;;;;;;;22.50;58.80;;;;;;6069482;23;19951;-83
2023/06/23 04:20:06;;;;;;;;;;;22.50;58.80;;;;;;6068385;23;19949;-80
2023/06/23 04:22:35;;;;;;;;;;;22.50;58.90;;;;;;6068059;23;19945;-81
2023/06/23 04:25:03;;;;;;;;;;;22.50;58.50;;;;;;6066626;23;19933;-80
2023/06/23 04:27:32;;;;;;;;;;;22.50;58.30;;;;;;6046726;23;19942;-80
2023/06/23 04:29:59;;;;;;;;;;;22.60;58.30;;;;;;6068432;23;19922;-78
2023/06/23 04:32:27;;;;;;;;;;;22.50;57.70;;;;;;6045504;23;19922;-80
2023/06/23 04:34:54;;;;;;;;;;;22.60;57.70;;;;;;6068353;23;20259;-80
2023/06/23 04:37:24;;;;;;;;;;;22.60;58.10;;;;;;6070113;23;19917;-80
2023/06/23 04:40:06;;;;;;;;;;;22.60;57.90;;;;;;6067761;23;19965;-79
2023/06/23 04:42:38;;;;;;;;;;;22.60;57.00;;;;;;6070030;23;19926;-81
2023/06/23 04:45:06;;;;;;;;;;;22.70;56.40;;;;;;6067688;23;19924;-82
2023/06/23 04:47:35;;;;;;;;;;;22.70;57.20;;;;;;6069629;23;19918;-80
2023/06/23 04:50:05;;;;;;;;;;;22.70;56.20;;;;;;6068179;23;19925;-81
2023/06/23 04:52:34;;;;;;;;;;;22.70;56.20;;;;;;6069004;23;19922;-82
2023/06/23 04:55:02;;;;;;;;;;;22.70;55.50;;;;;;6069029;23;19917;-82
2023/06/23 04:57:31;;;;;;;;;;;22.80;54.90;;;;;;6070519;23;20255;-82
2023/06/23 04:59:59;;;;;;;;;;;22.80;55.20;;;;;;6069595;23;19917;-82
2023/06/23 05:02:28;;;;;;;;;;;22.80;55.50;;;;;;6068043;23;20267;-81
2023/06/23 05:04:56;;;;;;;;;;;22.80;55.30;;;;;;6069431;23;19921;-81
2023/06/23 05:07:24;;;;;;;;;;;22.80;54.40;;;;;;6071496;23;19940;-82
2023/06/23 05:09:52;;;;;;;;;;;22.90;54.20;;;;;;6070013;23;19921;-82
2023/06/23 05:12:20;;;;;;;;;;;22.90;54.10;;;;;;6069750;23;19927;-81
2023/06/23 05:14:48;;;;;;;;;;;23.00;53.40;;;;;;6067756;23;19977;-81
2023/06/23 05:17:15;;;;;;;;;;;23.10;52.90;;;;;;6069224;23;20284;-81
2023/06/23 05:19:43;;;;;;;;;;;23.20;52.20;;;;;;6069645;23;19918;-82
2023/06/23 05:22:12;;;;;;;;;;;23.20;52.60;;;;;;6068340;23;19923;-81
2023/06/23 05:24:40;;;;;;;;;;;23.20;52.20;;;;;;6067900;23;20374;-81
2023/06/23 05:27:08;;;;;;;;;;;23.20;52.30;;;;;;6068826;23;20300;-81
2023/06/23 05:29:40;;;;;;;;;;;23.30;51.80;;;;;;6069826;23;19918;-80
2023/06/23 05:32:10;;;;;;;;;;;23.40;52.10;;;;;;6069228;23;19918;-81
2023/06/23 05:34:37;;;;;;;;;;;23.40;51.70;;;;;;6070133;23;19949;-82
2023/06/23 05:37:04;;;;;;;;;;;23.50;52.80;;;;;;6068029;23;19928;-81
2023/06/23 05:39:32;;;;;;;;;;;23.50;51.00;;;;;;6072714;23;19941;-80
2023/06/23 05:41:58;;;;;;;;;;;23.60;50.70;;;;;;6069128;23;19973;-82
2023/06/23 05:44:25;;;;;;;;;;;23.70;50.50;;;;;;6068177;23;19917;-82
2023/06/23 05:46:55;;;;;;;;;;;23.70;50.80;;;;;;6067477;23;20362;-82
2023/06/23 05:49:23;;;;;;;;;;;23.80;49.80;;;;;;6070757;23;19918;-81
2023/06/23 05:52:00;;;;;;;;;;;23.90;49.60;;;;;;6072917;23;20241;-80
2023/06/23 05:54:29;;;;;;;;;;;23.90;50.10;;;;;;6069291;23;19922;-82
2023/06/23 05:56:58;;;;;;;;;;;23.90;49.80;;;;;;6070268;23;19917;-81
2023/06/23 05:59:27;;;;;;;;;;;24.00;49.10;;;;;;6071308;23;19918;-81
2023/06/23 06:01:58;;;;;;;;;;;24.10;48.30;;;;;;6070236;23;19921;-80
2023/06/23 06:04:29;;;;;;;;;;;24.30;47.70;;;;;;6069646;23;19942;-82
2023/06/23 06:06:58;;;;;;;;;;;24.30;47.90;;;;;;6068720;23;19974;-81
2023/06/23 06:09:27;;;;;;;;;;;24.30;48.00;;;;;;6067161;23;19921;-81
2023/06/23 06:11:55;;;;;;;;;;;24.30;48.00;;;;;;6069061;23;19917;-81
2023/06/23 06:14:22;;;;;;;;;;;24.30;47.00;;;;;;6069500;23;19917;-80
2023/06/23 06:16:50;;;;;;;;;;;24.40;46.80;;;;;;6066437;23;19968;-81
2023/06/23 06:19:19;;;;;;;;;;;24.50;46.30;;;;;;6069683;23;20251;-80
2023/06/23 06:21:48;;;;;;;;;;;24.60;46.10;;;;;;6071428;23;19922;-81
2023/06/23 06:24:15;;;;;;;;;;;24.70;46.40;;;;;;6068567;23;20243;-82
2023/06/23 06:26:44;;;;;;;;;;;24.70;46.00;;;;;;6070285;23;19970;-80
2023/06/23 06:29:12;;;;;;;;;;;24.80;45.90;;;;;;6069158;23;19921;-81
2023/06/23 06:31:39;;;;;;;;;;;24.80;45.90;;;;;;6073660;23;19933;-81
2023/06/23 06:34:07;;;;;;;;;;;24.90;45.90;;;;;;6068622;23;20225;-82
2023/06/23 06:36:36;;;;;;;;;;;24.90;45.60;;;;;;6067180;23;20256;-80
2023/06/23 06:39:03;;;;;;;;;;;25.00;45.10;;;;;;6066696;23;19918;-81
2023/06/23 06:41:31;;;;;;;;;;;25.00;45.50;;;;;;6062075;23;19984;-81
2023/06/23 06:43:58;;;;;;;;;;;25.10;44.70;;;;;;6065492;23;19928;-81
2023/06/23 06:46:26;;;;;;;;;;;25.10;44.90;;;;;;6068654;23;20299;-81
2023/06/23 06:48:53;;;;;;;;;;;25.20;45.00;;;;;;6067576;23;19922;-81
2023/06/23 06:51:20;;;;;;;;;;;25.20;44.70;;;;;;6067318;23;20288;-81
2023/06/23 06:53:47;;;;;;;;;;;25.30;44.10;;;;;;6068948;23;20303;-82
2023/06/23 06:56:14;;;;;;;;;;;25.40;44.20;;;;;;6065186;23;19918;-82
2023/06/23 06:58:41;;;;;;;;;;;25.30;44.30;;;;;;6068897;23;20389;-81
2023/06/23 07:01:09;;;;;;;;;;;25.40;44.00;;;;;;6069472;23;20052;-80
2023/06/23 07:03:37;;;;;;;;;;;25.50;43.90;;;;;;6071014;23;19918;-80
2023/06/23 07:06:06;;;;;;;0.00;0.00;;;25.60;43.20;;;;;;6068769;23;19918;-81
2023/06/23 07:08:33;;;;;;;0.00;0.00;;;25.70;43.50;;;;;;6067431;23;20375;-80
2023/06/23 07:11:00;;;;;;;0.00;0.00;;;25.70;44.10;;;;;;6066170;23;20357;-79
2023/06/23 07:13:27;;;;;;;0.00;0.00;;;25.80;43.30;;;;;;6066642;23;20026;-81
2023/06/23 07:15:54;;;;;;;0.00;0.00;;;25.80;42.40;;;;;;6067247;23;20031;-82
2023/06/23 07:18:23;;;;;;;0.00;0.00;;;25.90;42.90;;;;;;6067839;23;20108;-80
2023/06/23 07:20:50;;;;;;;0.00;0.00;;;26.00;42.70;;;;;;6067379;23;20026;-82
2023/06/23 07:23:17;;;;;;;0.00;0.00;;;26.00;43.00;;;;;;6066911;23;20397;-82
2023/06/23 07:25:44;;;;;;;0.00;0.00;;;26.10;42.90;;;;;;6066840;23;20457;-80
2023/06/23 07:28:11;;;;;;;0.00;0.00;;;26.20;44.30;;;;;;6067987;23;20091;-81
2023/06/23 07:30:39;;;;;;;0.00;0.00;;;26.30;42.50;;;;;;6066932;23;20026;-80
2023/06/23 07:33:07;;;;;;;0.00;0.00;;;26.40;41.90;;;;;;6067047;23;20074;-82
2023/06/23 07:35:34;;;;;;;0.00;0.00;;;26.50;41.70;;;;;;6066232;23;20038;-82
2023/06/23 07:38:01;;;;;;;0.00;0.00;;;26.60;41.50;;;;;;6067139;23;20022;-80
2023/06/23 07:40:28;;;;;;;0.00;0.00;;;26.70;41.00;;;;;;6066696;23;20114;-82
2023/06/23 07:42:56;;;;;;;0.00;0.00;;;26.80;41.70;;;;;;6068543;23;20023;-82
2023/06/23 07:45:23;;;;;;;0.00;0.00;;;27.00;41.50;;;;;;6064837;23;20034;-82
2023/06/23 07:47:50;;;;;;;0.00;0.00;;;27.10;40.90;;;;;;6066200;23;20369;-81
2023/06/23 07:50:17;;;;;;;0.00;0.00;;;27.20;41.40;;;;;;6065621;23;20019;-82
2023/06/23 07:52:51;;;;;;;;;;;27.40;41.00;;;;;;6067342;23;20051;-82
2023/06/23 07:55:19;;;;;;;0.00;0.00;;;27.50;40.10;;;;;;6065876;23;20331;-82
2023/06/23 07:57:46;;;;;;;0.00;0.00;;;27.60;40.40;;;;;;6066508;23;20071;-82
2023/06/23 08:00:14;;;;;;;0.00;0.00;;;27.70;39.20;;;;;;6066144;23;20111;-81
2023/06/23 08:02:42;;;;;;;0.00;0.00;;;27.80;39.50;;;;;;6065193;23;20721;-81
2023/06/23 08:05:09;;;;;;;0.00;0.00;;;27.90;38.00;;;;;;6081935;23;20387;-81
2023/06/23 08:07:40;;;;;;;0.00;0.00;;;28.00;38.40;;;;;;6093700;23;20385;-82
2023/06/23 08:10:07;;;;;;;0.00;0.00;;;28.10;38.70;;;;;;6094771;23;20389;-82
2023/06/23 08:12:35;;;;;;;;;;;28.30;37.00;;;;;;6071914;23;20053;-80
2023/06/23 08:15:02;;;;;;;;;;;28.40;36.90;;;;;;6072770;23;19951;-81
2023/06/23 08:17:29;;;;;;;;;;;28.50;36.70;;;;;;6072227;23;20324;-82
2023/06/23 08:19:56;;;;;;;;;;;28.50;36.60;;;;;;6072079;23;19917;-82
2023/06/23 08:22:23;;;;;;;;;;;28.60;36.80;;;;;;6071580;23;20252;-82
2023/06/23 08:24:50;;;;;;;;;;;28.60;36.60;;;;;;6071829;23;19917;-81
2023/06/23 08:27:17;;;;;;;0.00;0.00;;;28.80;36.90;;;;;;6070551;23;19924;-81
2023/06/23 08:29:43;;;;;;;0.00;0.00;;;28.90;37.30;;;;;;6096710;23;20030;-81
2023/06/23 08:32:11;;;;;;;0.00;0.00;;;29.10;36.00;;;;;;6070637;23;20097;-81
2023/06/23 08:34:38;;;;;;;0.00;0.00;;;29.10;35.60;;;;;;6071806;23;20029;-82
2023/06/23 08:37:05;;;;;;;0.00;0.00;;;29.20;34.90;;;;;;6096748;23;20353;-80
2023/06/23 08:39:32;;;;;;;0.00;0.00;;;29.30;34.10;;;;;;6072004;23;20022;-82
2023/06/23 08:41:59;;;;;;;0.00;0.00;;;29.30;34.20;;;;;;6071697;23;20038;-82
2023/06/23 08:44:32;;;;;;;0.00;0.00;;;29.40;34.50;;;;;;6070233;23;20029;-81
2023/06/23 08:47:04;;;;;;;0.00;0.00;;;29.60;34.00;;;;;;6096293;23;20030;-81
2023/06/23 08:49:37;;;;;;;0.00;0.00;;;29.60;33.00;;;;;;6069972;23;20370;-82
2023/06/23 08:52:04;;;;;;;0.00;0.00;;;29.60;41.30;;;;;;6095643;23;20377;-81
2023/06/23 08:54:32;;;;;;;0.00;0.00;;;29.60;44.20;;;;;;6095105;23;20729;-82
2023/06/23 08:57:00;;;;;;;0.00;0.00;;;29.70;40.80;;;;;;6074917;23;20377;-82
2023/06/23 08:59:27;;;;;;;0.00;0.00;;;29.90;44.20;;;;;;6071375;23;20381;-82
2023/06/23 09:01:53;;;;;;;0.00;0.00;;;30.10;43.90;;;;;;6069732;23;20676;-81
2023/06/23 09:04:20;;;;;;;0.00;0.00;;;30.30;36.00;;;;;;6069788;23;20476;-81
2023/06/23 09:06:48;;;;;;;0.00;0.00;;;30.60;33.10;;;;;;6070089;23;20408;-81
2023/06/23 09:09:15;;;;;;;0.00;0.00;;;30.80;33.70;;;;;;6069737;23;20393;-81
2023/06/23 09:11:43;;;;;;;0.00;0.00;;;31.00;32.60;;;;;;6069029;23;20416;-82
2023/06/23 09:14:11;;;;;;;0.00;0.00;;;31.20;34.00;;;;;;6070954;23;20389;-82
2023/06/23 09:16:39;;;;;;;0.00;0.00;;;31.30;39.60;;;;;;6069586;23;20911;-82
2023/06/23 09:19:08;;;;;;;0.00;0.00;;;31.40;41.40;;;;;;6071201;23;20385;-82
2023/06/23 09:21:35;;;;;;;;;;;31.50;34.80;;;;;;6070209;23;20356;-82
2023/06/23 09:24:06;;;;;;;;;;;31.60;33.20;;;;;;6072303;23;19917;-82
2023/06/23 09:26:44;;;;;;;;;;;31.80;30.80;;;;;;6095344;23;19917;-82
2023/06/23 09:29:21;;;;;;;;;;;32.00;29.40;;;;;;6070998;23;19917;-82
2023/06/23 09:31:49;;;;;;;;;;;32.00;28.50;;;;;;6071007;23;20240;-82
2023/06/23 09:34:26;;;;;;;;;;;32.00;28.10;;;;;;6071009;23;19917;-81
2023/06/23 09:37:04;;;;;;;;;;;32.00;28.40;;;;;;6070841;23;19972;-79
2023/06/23 09:39:49;;;;;;;;;;;32.00;30.60;;;;;;6069742;23;19992;-81
2023/06/23 09:42:16;;;;;;;;;;;32.20;29.50;;;;;;6070843;23;19940;-82
2023/06/23 09:44:45;;;;;;;;;;;32.30;28.00;;;;;;6069994;23;19963;-81
2023/06/23 09:47:16;;;;;;;;;;;32.30;27.30;;;;;;6070910;23;19991;-82
2023/06/23 09:49:44;;;;;;;;;;;32.30;26.90;;;;;;6069940;23;19916;-83
2023/06/23 09:52:29;;;;;;;;;;;32.30;27.50;;;;;;6071247;23;19965;-83
2023/06/23 09:54:56;;;;;;;;;;;32.40;30.30;;;;;;6094866;23;19940;-82
2023/06/23 09:57:25;;;;;;;;;;;32.50;32.50;;;;;;6070504;23;19916;-82
2023/06/23 09:59:52;;;;;;;;;;;32.60;29.10;;;;;;6069813;23;19917;-84
2023/06/23 10:02:23;;;;;;;;;;;32.80;28.50;;;;;;6070893;23;19921;-82
2023/06/23 10:04:51;;;;;;;;;;;32.80;26.80;;;;;;6094788;23;19921;-83
2023/06/23 10:07:22;;;;;;;;;;;32.90;29.80;;;;;;6070957;23;19917;-84
2023/06/23 10:09:53;;;;;;;;;;;33.10;33.40;;;;;;6069376;23;19931;-80
2023/06/23 10:12:39;;;;;;;;;;;33.00;33.10;;;;;;6073714;23;19917;-83
2023/06/23 10:15:07;;;;;;;;;;;33.10;34.40;;;;;;6070298;23;19924;-82
2023/06/23 10:17:34;;;;;;;;;;;33.00;35.20;;;;;;6070630;23;19972;-79
2023/06/23 10:20:04;;;;;;;;;;;32.90;35.70;;;;;;6070314;23;20306;-80
2023/06/23 10:22:31;;;;;;;;;;;33.00;36.20;;;;;;6094066;23;19921;-82
2023/06/23 10:24:59;;;;;;;;;;;33.00;35.50;;;;;;6069633;23;19940;-82
2023/06/23 10:27:28;;;;;;;;;;;33.20;35.50;;;;;;6070244;23;19917;-82
2023/06/23 10:29:56;;;;;;;;;;;33.30;34.50;;;;;;6068619;23;19925;-83
2023/06/23 10:32:26;;;;;;;;;;;33.50;34.70;;;;;;6070518;23;19928;-83
2023/06/23 10:34:55;;;;;;;;;;;33.40;34.80;;;;;;6069443;23;20167;-83
2023/06/23 10:37:25;;;;;;;0.00;0.00;;;33.40;34.60;;;;;;6094433;23;19917;-83
2023/06/23 10:40:13;;;;;;;0.00;0.00;;;33.40;35.10;;;;;;6093316;23;20401;-82
2023/06/23 10:42:43;;;;;;;0.00;0.00;;;33.30;36.20;;;;;;6093637;23;20382;-82
2023/06/23 10:45:10;;;;;;;0.00;0.00;;;33.00;37.30;;;;;;6068258;23;20704;-82
2023/06/23 10:47:38;;;;;;;0.00;0.00;;;33.00;36.70;;;;;;6068429;23;20381;-82
2023/06/23 10:50:10;;;;;;;0.00;0.00;;;33.10;36.50;;;;;;6092877;23;20768;-83
2023/06/23 10:52:37;;;;;;;0.00;0.00;;;33.20;37.30;;;;;;6093450;23;20381;-84
2023/06/23 10:55:38;;;;;;;0.00;0.00;;;33.30;37.50;;;;;;6067863;23;20385;-83
2023/06/23 10:58:18;;;;;;;0.00;0.00;;;33.40;35.60;;;;;;6069265;23;20374;-83
2023/06/23 11:00:57;;;;;;;0.00;0.00;;;33.40;36.00;;;;;;6069060;23;20381;-85
2023/06/23 11:03:35;;;;;;;0.00;0.00;;;33.30;35.60;;;;;;6067631;23;20752;-85
2023/06/23 11:06:08;;;;;;;0.00;0.00;;;33.20;35.50;;;;;;6067264;23;20382;-83
2023/06/23 11:08:44;;;;;;;0.00;0.00;;;33.00;35.00;;;;;;6069047;23;20405;-84
2023/06/23 11:11:12;;;;;;;0.00;0.00;;;32.90;33.40;;;;;;6067327;23;20477;-83
2023/06/23 11:13:46;;;;;;;0.00;0.00;;;32.90;34.70;;;;;;6068135;23;20715;-84
2023/06/23 11:16:29;;;;;;;0.00;0.00;;;33.10;34.50;;;;;;6067705;23;20392;-83
2023/06/23 11:18:57;;;;;;;0.00;0.00;;;33.20;33.80;;;;;;6093447;23;20385;-84
2023/06/23 11:21:27;;;;;;;;;;;33.40;34.70;;;;;;6069089;23;20022;-85
2023/06/23 11:24:07;;;;;;;;;;;33.60;35.00;;;;;;6070562;23;19921;-84
2023/06/23 11:26:34;;;;;;;;;;;33.50;34.50;;;;;;6069111;23;20036;-85
2023/06/23 11:29:07;;;;;;;0.00;0.00;;;32.80;34.40;;;;;;6069836;23;19917;-85
2023/06/23 11:31:34;;;;;;;0.00;0.00;;;32.60;35.30;;;;;;6068286;23;20026;-84
2023/06/23 11:34:03;;;;;;;0.00;0.00;;;32.70;35.70;;;;;;6069943;23;20022;-85
2023/06/23 11:36:31;;;;;;;0.00;0.00;;;32.90;34.10;;;;;;6069410;23;20030;-84
2023/06/23 11:39:00;;;;;;;0.00;0.00;;;32.90;32.20;;;;;;6069690;23;20469;-84
2023/06/23 11:41:31;;;;;;;0.00;0.00;;;33.00;33.50;;;;;;6069249;23;20105;-85
2023/06/23 11:44:03;;;;;;;0.00;0.00;;;33.10;33.30;;;;;;6071244;23;20093;-83
2023/06/23 11:46:33;;;;;;;;;;;33.10;31.50;;;;;;6095632;23;20027;-84
2023/06/23 11:49:10;;;;;;;;;;;33.30;31.70;;;;;;6070734;23;19972;-84
2023/06/23 11:51:37;;;;;;;;;;;33.50;32.40;;;;;;6069370;23;19921;-84
2023/06/23 11:54:05;;;;;;;;;;;33.60;30.30;;;;;;6071236;23;19921;-83
2023/06/23 11:56:32;;;;;;;;;;;33.80;32.40;;;;;;6095503;23;19917;-84
2023/06/23 11:59:01;;;;;;;;;;;33.70;30.70;;;;;;6073208;23;19921;-86
2023/06/23 12:01:27;;;;;;;0.00;0.00;;;33.60;29.80;;;;;;6068183;23;20415;-81
2023/06/23 12:03:54;;;;;;;0.00;0.00;;;33.50;30.10;;;;;;6069071;23;20405;-80
2023/06/23 12:06:24;;;;;;;;;;;33.60;32.10;;;;;;6093746;23;20026;-81
2023/06/23 12:08:51;;;;;;;;;;;33.70;32.00;;;;;;6069532;23;19917;-81
2023/06/23 12:11:19;;;;;;;0.00;0.00;;;34.00;31.10;;;;;;6068110;23;19945;-81
2023/06/23 12:13:50;;;;;;;0.00;0.00;;;34.20;29.60;;;;;;6068939;23;20101;-81
2023/06/23 12:16:18;;;;;;;;;;;34.30;29.60;;;;;;6068608;23;20070;-81
2023/06/23 12:18:46;;;;;;;0.00;0.00;;;34.30;30.00;;;;;;6069098;23;19917;-81
2023/06/23 12:21:14;;;;;;;0.00;0.00;;;34.30;30.00;;;;;;6069193;23;20026;-80
2023/06/23 12:23:43;;;;;;;0.00;0.00;;;34.40;29.60;;;;;;6067639;23;20027;-81
2023/06/23 12:26:10;;;;;;;0.00;0.00;;;34.60;31.10;;;;;;6068620;23;20346;-80
2023/06/23 12:28:37;;;;;;;0.00;0.00;;;34.90;30.10;;;;;;6068363;23;20409;-80
2023/06/23 12:31:04;;;;;;;0.00;0.00;;;35.10;30.00;;;;;;6073171;23;20034;-80
2023/06/23 12:33:35;;;;;;;0.00;0.00;;;35.30;30.70;;;;;;6071038;23;20023;-79
2023/06/23 12:36:04;;;;;;;0.00;0.00;;;35.20;29.50;;;;;;6096463;23;20022;-80
2023/06/23 12:38:33;;;;;;;0.00;0.00;;;35.20;30.00;;;;;;6070878;23;20360;-79
2023/06/23 12:41:23;;;;;;;0.00;0.00;;;35.40;30.90;;;;;;6095218;23;20036;-80
2023/06/23 12:43:54;;;;;;;0.00;0.00;;;35.50;29.80;;;;;;6070569;23;20022;-79
2023/06/23 12:46:23;;;;;;;0.00;0.00;;;35.60;29.70;;;;;;6070065;23;20468;-80
2023/06/23 12:48:51;;;;;;;0.00;0.00;;;35.70;29.40;;;;;;6068393;23;20034;-79
2023/06/23 12:51:30;;;;;;;0.00;0.00;;;35.70;30.00;;;;;;6095134;23;20026;-79
2023/06/23 12:53:56;;;;;;;0.00;0.00;;;35.70;29.10;;;;;;6070963;23;20026;-81
2023/06/23 12:56:23;;;;;;;0.00;0.00;;;35.70;28.80;;;;;;6074010;23;20058;-80
2023/06/23 12:58:50;;;;;;;0.00;0.00;;;35.60;29.00;;;;;;6100483;23;20360;-81
2023/06/23 13:01:17;;;;;;;0.00;0.00;;;35.70;29.60;;;;;;6074866;23;20504;-80
2023/06/23 13:03:46;;;;;;;0.00;0.00;;;35.80;30.40;;;;;;6071981;23;20022;-80
2023/06/23 13:06:14;;;;;;;0.00;0.00;;;35.90;29.20;;;;;;6097849;23;20345;-80
2023/06/23 13:08:41;;;;;;;0.00;0.00;;;35.90;29.50;;;;;;6098516;23;20404;-80
2023/06/23 13:11:08;;;;;;;0.00;0.00;;;36.00;29.00;;;;;;6072933;23;20036;-80
2023/06/23 13:13:35;;;;;;;0.00;0.00;;;36.00;29.80;;;;;;6098327;23;20022;-80
2023/06/23 13:16:02;;;;;;;0.00;0.00;;;35.50;28.90;;;;;;6072077;23;20030;-80
2023/06/23 13:18:29;;;;;;;0.00;0.00;;;35.60;29.90;;;;;;6073172;23;20030;-80
2023/06/23 13:20:56;;;;;;;;;;;35.10;29.40;;;;;;6071864;23;20397;-79
2023/06/23 13:23:23;;;;;;;;;;;34.60;30.00;;;;;;6071213;23;19996;-80
2023/06/23 13:25:50;;;;;;;0.00;0.00;;;34.50;30.20;;;;;;6095030;23;20004;-80
2023/06/23 13:28:17;;;;;;;0.00;0.00;;;34.20;30.90;;;;;;6070818;23;20097;-80
2023/06/23 13:30:43;;;;;;;0.00;0.00;;;34.20;32.20;;;;;;6069275;23;20022;-80
2023/06/23 13:33:10;;;;;;;;;;;34.40;32.60;;;;;;6070258;23;20026;-80
2023/06/23 13:35:37;;;;;;;0.00;0.00;;;34.80;32.50;;;;;;6095590;23;19918;-80
2023/06/23 13:38:04;;;;;;;0.00;0.00;;;34.80;29.60;;;;;;6071095;23;20050;-79
2023/06/23 13:40:31;;;;;;;0.00;0.00;;;34.80;30.80;;;;;;6073190;23;20019;-80
2023/06/23 13:42:59;;;;;;;0.00;0.00;;;35.10;31.30;;;;;;6070270;23;20524;-80
2023/06/23 13:45:27;;;;;;;0.00;0.00;;;35.20;30.50;;;;;;6070066;23;20038;-78
2023/06/23 13:47:54;;;;;;;0.00;0.00;;;35.10;29.90;;;;;;6069977;23;20023;-79
2023/06/23 13:50:21;;;;;;;0.00;0.00;;;35.00;30.10;;;;;;6071241;23;20022;-79
2023/06/23 13:52:48;;;;;;;0.00;0.00;;;35.20;31.60;;;;;;6070811;23;20760;-81
2023/06/23 13:55:15;;;;;;;0.00;0.00;;;35.40;31.40;;;;;;6070631;23;20037;-80